createdAt,value
2018-05-27T00:00:45.529Z,10.93
2018-05-27T00:03:13.276Z,11.17
2018-05-27T00:05:40.991Z,10.10
2018-05-27T00:08:08.969Z,10.27
2018-05-27T00:10:37.128Z,10.00
2018-05-27T00:13:04.768Z,10.20
2018-05-27T00:15:32.389Z,10.20
2018-05-27T00:17:59.925Z,9.60
2018-05-27T00:20:27.392Z,9.33
2018-05-27T00:22:55.334Z,9.63
2018-05-27T00:25:23.270Z,9.73
2018-05-27T00:27:51.122Z,9.93
2018-05-27T00:30:18.947Z,8.93
2018-05-27T00:32:46.655Z,8.83
2018-05-27T00:35:15.317Z,8.23
2018-05-27T00:37:42.947Z,9.30
2018-05-27T00:40:10.557Z,8.40
2018-05-27T00:42:38.301Z,9.30
2018-05-27T00:45:06.339Z,8.80
2018-05-27T00:47:34.676Z,8.73
2018-05-27T00:50:02.539Z,10.07
2018-05-27T00:52:30.029Z,9.57
2018-05-27T00:54:57.509Z,9.90
2018-05-27T00:57:25.060Z,9.50
2018-05-27T00:59:52.522Z,9.27
2018-05-27T01:02:20.023Z,9.13
2018-05-27T01:04:47.478Z,8.93
2018-05-27T01:07:15.647Z,10.10
2018-05-27T01:09:44.663Z,10.50
2018-05-27T01:12:12.503Z,9.57
2018-05-27T01:14:40.361Z,10.87
2018-05-27T01:17:08.027Z,9.67
2018-05-27T01:19:35.521Z,10.20
2018-05-27T01:22:02.985Z,10.20
2018-05-27T01:24:30.504Z,10.73
2018-05-27T01:26:58.050Z,10.00
2018-05-27T01:29:25.541Z,10.00
2018-05-27T01:31:54.810Z,9.90
2018-05-27T01:34:22.376Z,10.10
2018-05-27T01:36:50.246Z,8.57
2018-05-27T01:39:19.191Z,9.40
2018-05-27T01:41:47.292Z,9.47
2018-05-27T01:44:15.100Z,9.07
2018-05-27T01:46:42.784Z,9.13
2018-05-27T01:49:11.087Z,9.00
2018-05-27T01:51:38.619Z,9.30
2018-05-27T01:54:06.459Z,9.30
2018-05-27T01:56:34.463Z,8.40
2018-05-27T01:59:02.495Z,10.67
2018-05-27T02:01:30.572Z,10.13
2018-05-27T02:03:58.832Z,10.17
2018-05-27T02:06:27.161Z,9.27
2018-05-27T02:08:54.693Z,10.20
2018-05-27T02:11:22.340Z,9.60
2018-05-27T02:13:50.397Z,10.43
2018-05-27T02:16:17.874Z,9.43
2018-05-27T02:18:45.360Z,9.40
2018-05-27T02:21:12.841Z,9.33
2018-05-27T02:23:40.303Z,9.53
2018-05-27T02:26:07.752Z,8.80
2018-05-27T02:28:35.231Z,9.03
2018-05-27T02:31:02.681Z,10.23
2018-05-27T02:33:30.177Z,9.87
2018-05-27T02:35:57.681Z,10.23
2018-05-27T02:38:25.199Z,9.60
2018-05-27T02:40:52.684Z,9.43
2018-05-27T02:43:20.140Z,9.43
2018-05-27T02:45:47.619Z,9.40
2018-05-27T02:48:15.348Z,8.97
2018-05-27T02:50:42.840Z,9.27
2018-05-27T02:53:10.299Z,9.57
2018-05-27T02:55:37.876Z,9.80
2018-05-27T02:58:05.355Z,9.80
2018-05-27T03:00:33.110Z,9.93
2018-05-27T03:03:00.576Z,9.17
2018-05-27T03:05:28.102Z,10.17
2018-05-27T03:07:55.594Z,9.67
2018-05-27T03:10:23.095Z,10.07
2018-05-27T03:12:50.553Z,9.70
2018-05-27T03:15:18.061Z,9.30
2018-05-27T03:17:45.592Z,9.93
2018-05-27T03:20:14.899Z,9.33
2018-05-27T03:22:43.542Z,9.93
2018-05-27T03:25:12.493Z,9.67
2018-05-27T03:27:41.306Z,9.67
2018-05-27T03:30:09.953Z,9.30
2018-05-27T03:32:38.963Z,9.13
2018-05-27T03:35:08.489Z,8.70
2018-05-27T03:37:38.910Z,7.77
2018-05-27T03:40:08.402Z,8.47
2018-05-27T03:42:38.594Z,8.83
2018-05-27T03:45:07.792Z,9.80
2018-05-27T03:47:36.927Z,9.60
2018-05-27T03:50:05.035Z,9.80
2018-05-27T03:52:34.974Z,9.67
2018-05-27T03:55:02.974Z,9.40
2018-05-27T03:57:31.156Z,9.50
2018-05-27T03:59:58.799Z,9.67
2018-05-27T04:02:26.780Z,9.13
2018-05-27T04:05:06.190Z,9.47
2018-05-27T04:07:46.791Z,10.20
2018-05-27T04:10:16.184Z,10.73
2018-05-27T04:12:44.709Z,9.77
2018-05-27T04:15:13.429Z,10.27
2018-05-27T04:17:43.194Z,9.57
2018-05-27T04:20:12.245Z,9.77
2018-05-27T04:22:41.645Z,9.83
2018-05-27T04:25:09.750Z,10.00
2018-05-27T04:27:37.522Z,9.23
2018-05-27T04:30:05.377Z,8.77
2018-05-27T04:32:33.553Z,8.87
2018-05-27T04:35:01.525Z,9.40
2018-05-27T04:37:31.168Z,8.53
2018-05-27T04:39:59.150Z,9.03
2018-05-27T04:42:26.640Z,8.53
2018-05-27T04:44:55.007Z,8.03
2018-05-27T04:47:25.297Z,8.40
2018-05-27T04:49:53.926Z,8.73
2018-05-27T04:52:22.380Z,8.53
2018-05-27T04:54:50.252Z,8.70
2018-05-27T04:57:18.283Z,7.70
2018-05-27T04:59:46.673Z,8.60
2018-05-27T05:02:15.359Z,8.77
2018-05-27T05:04:43.665Z,9.13
2018-05-27T05:07:13.162Z,9.23
2018-05-27T05:09:41.480Z,9.50
2018-05-27T05:12:09.968Z,9.57
2018-05-27T05:14:37.550Z,9.47
2018-05-27T05:17:06.311Z,9.27
2018-05-27T05:19:34.805Z,9.27
2018-05-27T05:22:03.435Z,9.03
2018-05-27T05:24:31.080Z,9.17
2018-05-27T05:26:58.564Z,9.13
2018-05-27T05:29:26.905Z,9.17
2018-05-27T05:31:55.051Z,8.30
2018-05-27T05:34:24.326Z,7.77
2018-05-27T05:36:53.429Z,9.23
2018-05-27T05:39:22.245Z,9.80
2018-05-27T05:41:50.622Z,8.63
2018-05-27T05:44:18.320Z,8.80
2018-05-27T05:46:46.236Z,9.23
2018-05-27T05:49:13.726Z,8.50
2018-05-27T05:51:41.575Z,8.57
2018-05-27T05:54:09.170Z,8.10
2018-05-27T05:56:36.622Z,8.47
2018-05-27T05:59:04.078Z,8.67
2018-05-27T06:01:31.541Z,9.00
2018-05-27T06:03:58.984Z,8.17
2018-05-27T06:06:26.546Z,8.77
2018-05-27T06:08:54.128Z,9.00
2018-05-27T06:11:21.600Z,8.17
2018-05-27T06:13:49.052Z,8.23
2018-05-27T06:16:16.699Z,8.57
2018-05-27T06:18:44.868Z,9.40
2018-05-27T06:21:12.314Z,8.90
2018-05-27T06:23:39.850Z,8.53
2018-05-27T06:26:07.505Z,8.60
2018-05-27T06:28:34.995Z,8.67
2018-05-27T06:31:02.454Z,8.30
2018-05-27T06:33:32.337Z,8.37
2018-05-27T06:35:59.806Z,7.80
2018-05-27T06:38:27.256Z,7.97
2018-05-27T06:40:54.752Z,8.40
2018-05-27T06:43:22.289Z,8.80
2018-05-27T06:45:49.746Z,8.53
2018-05-27T06:48:17.209Z,8.80
2018-05-27T06:50:44.654Z,8.17
2018-05-27T06:53:12.127Z,8.33
2018-05-27T06:55:39.564Z,7.83
2018-05-27T06:58:07.023Z,8.40
2018-05-27T07:00:34.509Z,8.67
2018-05-27T07:03:01.963Z,8.80
2018-05-27T07:05:29.411Z,8.17
2018-05-27T07:07:56.881Z,8.13
2018-05-27T07:10:24.336Z,7.83
2018-05-27T07:12:51.940Z,8.50
2018-05-27T07:15:19.706Z,8.27
2018-05-27T07:17:47.171Z,7.80
2018-05-27T07:20:14.671Z,7.63
2018-05-27T07:25:16.255Z,8.03
2018-05-27T07:27:43.765Z,8.10
2018-05-27T07:30:12.113Z,7.30
2018-05-27T07:32:39.592Z,7.23
2018-05-27T07:35:07.031Z,8.30
2018-05-27T07:37:35.054Z,8.60
2018-05-27T07:40:02.543Z,7.50
2018-05-27T07:42:30.135Z,7.87
2018-05-27T07:44:57.620Z,7.03
2018-05-27T07:47:25.102Z,7.83
2018-05-27T07:49:52.715Z,7.50
2018-05-27T07:52:20.199Z,7.40
2018-05-27T07:54:48.299Z,7.57
2018-05-27T07:57:15.859Z,7.00
2018-05-27T07:59:43.388Z,7.07
2018-05-27T08:02:10.848Z,7.03
2018-05-27T08:04:38.304Z,7.00
2018-05-27T08:07:06.557Z,6.50
2018-05-27T08:09:34.059Z,6.70
2018-05-27T08:12:01.621Z,6.27
2018-05-27T08:14:29.206Z,6.37
2018-05-27T08:16:56.859Z,6.67
2018-05-27T08:19:26.487Z,6.00
2018-05-27T08:21:54.275Z,6.33
2018-05-27T08:24:22.730Z,5.87
2018-05-27T08:26:50.231Z,6.32
2018-05-27T08:29:19.241Z,5.28
2018-05-27T08:31:50.150Z,6.03
2018-05-27T08:34:17.900Z,5.75
2018-05-27T08:36:45.419Z,5.53
2018-05-27T08:39:13.365Z,5.47
2018-05-27T08:41:40.844Z,5.05
2018-05-27T08:44:08.415Z,6.00
2018-05-27T08:46:35.859Z,7.43
2018-05-27T08:49:03.405Z,8.32
2018-05-27T08:51:34.474Z,5.18
2018-05-27T08:54:02.003Z,5.28
2018-05-27T08:56:31.650Z,5.32
2018-05-27T08:58:59.250Z,5.10
2018-05-27T09:01:29.021Z,5.30
2018-05-27T09:03:57.016Z,5.10
2018-05-27T09:06:24.471Z,4.97
2018-05-27T09:08:53.512Z,5.10
2018-05-27T09:11:21.424Z,4.53
2018-05-27T09:13:50.108Z,4.90
2018-05-27T09:16:18.538Z,4.43
2018-05-27T09:18:46.331Z,4.65
2018-05-27T09:21:15.036Z,4.57
2018-05-27T09:23:42.881Z,5.10
2018-05-27T09:26:12.073Z,4.68
2018-05-27T09:28:42.685Z,4.30
2018-05-27T09:31:13.385Z,4.45
2018-05-27T09:33:42.866Z,4.53
2018-05-27T09:36:11.447Z,6.97
2018-05-27T09:38:40.265Z,6.70
2018-05-27T09:41:09.180Z,4.72
2018-05-27T09:43:39.407Z,4.32
2018-05-27T09:46:10.558Z,4.40
2018-05-27T09:48:40.412Z,4.10
2018-05-27T09:51:08.148Z,4.15
2018-05-27T09:53:36.785Z,3.53
2018-05-27T09:56:04.279Z,4.00
2018-05-27T09:58:31.733Z,4.07
2018-05-27T10:00:59.556Z,3.80
2018-05-27T10:03:27.600Z,3.90
2018-05-27T10:05:56.073Z,3.83
2018-05-27T10:08:26.138Z,4.07
2018-05-27T10:10:54.182Z,3.87
2018-05-27T10:13:22.065Z,3.70
2018-05-27T10:15:50.044Z,3.80
2018-05-27T10:18:19.952Z,3.92
2018-05-27T10:20:50.115Z,4.12
2018-05-27T10:23:19.397Z,4.00
2018-05-27T10:25:48.403Z,4.00
2018-05-27T10:28:18.154Z,3.87
2018-05-27T10:30:45.871Z,3.78
2018-05-27T10:33:13.335Z,3.95
2018-05-27T10:35:40.819Z,3.95
2018-05-27T10:38:08.402Z,4.05
2018-05-27T10:40:35.831Z,3.45
2018-05-27T10:43:03.357Z,3.92
2018-05-27T10:45:30.828Z,4.18
2018-05-27T10:47:58.371Z,4.10
2018-05-27T10:50:25.863Z,4.18
2018-05-27T10:52:53.302Z,3.67
2018-05-27T10:55:20.771Z,3.62
2018-05-27T10:57:48.323Z,3.58
2018-05-27T11:00:15.815Z,3.80
2018-05-27T11:02:43.307Z,4.00
2018-05-27T11:05:10.742Z,3.87
2018-05-27T11:07:38.295Z,4.03
2018-05-27T11:10:05.774Z,3.70
2018-05-27T11:12:33.239Z,3.70
2018-05-27T11:15:00.682Z,3.78
2018-05-27T11:17:28.177Z,4.60
2018-05-27T11:19:55.830Z,3.55
2018-05-27T11:22:23.437Z,3.85
2018-05-27T11:24:50.933Z,3.90
2018-05-27T11:27:18.507Z,3.83
2018-05-27T11:29:46.699Z,3.28
2018-05-27T11:32:14.616Z,3.97
2018-05-27T11:34:42.121Z,4.80
2018-05-27T11:37:09.841Z,4.18
2018-05-27T11:39:37.327Z,3.87
2018-05-27T11:42:04.785Z,3.62
2018-05-27T11:44:32.801Z,3.67
2018-05-27T11:50:00.788Z,3.45
2018-05-27T11:52:36.078Z,3.78
2018-05-27T11:55:08.817Z,3.70
2018-05-27T11:57:38.707Z,3.83
2018-05-27T12:00:08.619Z,3.90
2018-05-27T12:02:38.079Z,5.37
2018-05-27T12:05:07.514Z,3.70
2018-05-27T12:07:37.947Z,3.55
2018-05-27T12:10:07.234Z,5.70
2018-05-27T12:12:39.356Z,5.55
2018-05-27T12:15:08.901Z,3.95
2018-05-27T12:17:38.524Z,3.80
2018-05-27T12:20:06.076Z,4.53
2018-05-27T12:22:33.526Z,3.60
2018-05-27T12:25:01.566Z,3.60
2018-05-27T12:27:29.038Z,3.80
2018-05-27T12:29:56.541Z,3.65
2018-05-27T12:32:23.999Z,11.15
2018-05-27T12:34:51.475Z,4.05
2018-05-27T12:37:18.938Z,3.90
2018-05-27T12:39:46.485Z,4.18
2018-05-27T12:42:13.998Z,3.47
2018-05-27T12:44:41.455Z,3.53
2018-05-27T12:47:08.917Z,3.30
2018-05-27T12:49:36.383Z,3.97
2018-05-27T12:52:03.866Z,3.87
2018-05-27T12:54:31.767Z,3.97
2018-05-27T12:56:59.273Z,3.83
2018-05-27T13:05:25.162Z,5.37
2018-05-27T13:07:52.688Z,4.25
2018-05-27T13:10:20.127Z,3.83
2018-05-27T13:12:47.600Z,3.70
2018-05-27T13:15:15.032Z,3.70
2018-05-27T13:17:43.083Z,3.85
2018-05-27T13:20:10.553Z,5.43
2018-05-27T13:22:37.985Z,5.50
2018-05-27T13:25:05.501Z,4.50
2018-05-27T13:27:32.996Z,4.60
2018-05-27T13:30:00.570Z,4.45
2018-05-27T13:32:28.025Z,4.47
2018-05-27T13:34:55.518Z,9.07
2018-05-27T13:37:22.978Z,4.10
2018-05-27T13:39:50.427Z,4.25
2018-05-27T13:42:17.897Z,4.35
2018-05-27T13:44:45.350Z,4.18
2018-05-27T13:47:12.774Z,4.32
2018-05-27T13:49:40.286Z,4.37
2018-05-27T13:52:07.745Z,4.40
2018-05-27T13:54:35.224Z,4.87
2018-05-27T13:57:02.692Z,4.45
2018-05-27T13:59:30.239Z,4.40
2018-05-27T14:01:57.771Z,4.00
2018-05-27T14:04:25.271Z,6.72
2018-05-27T14:06:52.732Z,6.37
2018-05-27T14:09:20.347Z,4.85
2018-05-27T14:11:47.890Z,5.07
2018-05-27T14:14:15.423Z,4.25
2018-05-27T14:16:42.894Z,4.25
2018-05-27T14:19:10.359Z,4.12
2018-05-27T14:21:37.825Z,4.62
2018-05-27T14:24:05.277Z,5.37
2018-05-27T14:26:32.825Z,4.90
2018-05-27T14:29:00.284Z,5.28
2018-05-27T14:31:27.721Z,4.80
2018-05-27T14:33:55.190Z,4.62
2018-05-27T14:36:22.617Z,4.62
2018-05-27T14:38:50.082Z,4.22
2018-05-27T14:41:17.556Z,4.32
2018-05-27T14:43:44.997Z,4.47
2018-05-27T14:46:12.473Z,4.50
2018-05-27T14:48:39.949Z,4.03
2018-05-27T14:51:07.383Z,4.40
2018-05-27T14:53:34.847Z,4.25
2018-05-27T14:56:02.336Z,4.10
2018-05-27T14:58:29.809Z,4.37
2018-05-27T15:00:57.237Z,3.80
2018-05-27T15:03:24.733Z,4.70
2018-05-27T15:05:52.179Z,3.97
2018-05-27T15:08:19.745Z,4.35
2018-05-27T15:10:47.187Z,4.10
2018-05-27T15:13:14.647Z,4.55
2018-05-27T15:15:42.173Z,4.22
2018-05-27T15:18:09.632Z,4.20
2018-05-27T15:20:37.072Z,11.40
2018-05-27T15:23:04.536Z,5.82
2018-05-27T15:25:33.243Z,5.72
2018-05-27T15:28:00.733Z,5.15
2018-05-27T15:30:28.276Z,4.18
2018-05-27T15:32:55.905Z,3.90
2018-05-27T15:35:23.561Z,4.10
2018-05-27T15:37:51.186Z,4.28
2018-05-27T15:40:18.670Z,4.20
2018-05-27T15:42:46.174Z,4.22
2018-05-27T15:45:14.140Z,4.22
2018-05-27T15:47:49.950Z,4.70
2018-05-27T15:50:17.502Z,3.87
2018-05-27T15:52:44.997Z,3.97
2018-05-27T15:55:13.503Z,4.22
2018-05-27T15:57:41.527Z,4.00
2018-05-27T16:00:13.425Z,4.18
2018-05-27T16:02:46.464Z,3.80
2018-05-27T16:05:25.082Z,3.62
2018-05-27T16:07:53.908Z,3.90
2018-05-27T16:10:21.400Z,3.97
2018-05-27T16:12:48.825Z,3.85
2018-05-27T16:15:16.270Z,3.35
2018-05-27T16:17:43.729Z,4.20
2018-05-27T16:20:11.433Z,3.90
2018-05-27T16:22:39.953Z,4.12
2018-05-27T16:25:07.426Z,4.35
2018-05-27T16:27:34.906Z,4.00
2018-05-27T16:30:02.550Z,4.30
2018-05-27T16:32:30.022Z,3.53
2018-05-27T16:34:57.554Z,3.80
2018-05-27T16:37:25.079Z,3.97
2018-05-27T16:39:52.622Z,3.70
2018-05-27T16:42:20.111Z,3.50
2018-05-27T16:44:47.609Z,3.78
2018-05-27T16:47:15.308Z,3.50
2018-05-27T16:49:42.829Z,4.03
2018-05-27T16:52:10.297Z,3.75
2018-05-27T16:54:37.751Z,3.50
2018-05-27T16:57:07.662Z,3.95
2018-05-27T16:59:35.284Z,3.87
2018-05-27T17:02:02.756Z,4.05
2018-05-27T17:04:30.203Z,3.95
2018-05-27T17:06:57.765Z,4.07
2018-05-27T17:09:25.251Z,3.87
2018-05-27T17:11:52.812Z,3.70
2018-05-27T17:14:20.276Z,4.35
2018-05-27T17:16:48.313Z,3.83
2018-05-27T17:19:15.788Z,4.47
2018-05-27T17:21:43.593Z,4.30
2018-05-27T17:24:11.339Z,4.00
2018-05-27T17:26:44.151Z,4.47
2018-05-27T17:29:12.706Z,4.20
2018-05-27T17:31:40.422Z,3.90
2018-05-27T17:34:08.150Z,3.70
2018-05-27T17:36:35.696Z,3.87
2018-05-27T17:39:03.212Z,4.10
2018-05-27T17:41:30.792Z,4.20
2018-05-27T17:43:58.264Z,4.10
2018-05-27T17:46:25.705Z,4.28
2018-05-27T17:48:53.171Z,5.55
2018-05-27T17:51:20.714Z,4.60
2018-05-27T17:53:48.181Z,5.75
2018-05-27T17:56:15.646Z,4.90
2018-05-27T17:58:46.010Z,4.82
2018-05-27T18:01:13.859Z,5.22
2018-05-27T18:03:41.397Z,4.30
2018-05-27T18:06:08.958Z,4.50
2018-05-27T18:08:36.603Z,4.53
2018-05-27T18:11:04.112Z,4.37
2018-05-27T18:13:31.695Z,4.55
2018-05-27T18:15:59.136Z,4.57
2018-05-27T18:18:26.589Z,4.72
2018-05-27T18:20:54.012Z,4.93
2018-05-27T18:23:21.518Z,4.60
2018-05-27T18:25:49.600Z,4.78
2018-05-27T18:28:17.053Z,4.55
2018-05-27T18:30:44.585Z,4.53
2018-05-27T18:33:12.330Z,5.05
2018-05-27T18:35:39.798Z,4.43
2018-05-27T18:38:07.257Z,5.18
2018-05-27T18:40:34.708Z,4.95
2018-05-27T18:43:03.543Z,4.93
2018-05-27T18:45:31.177Z,5.50
2018-05-27T18:47:58.680Z,4.47
2018-05-27T18:50:26.149Z,5.47
2018-05-27T18:52:53.634Z,4.93
2018-05-27T18:55:21.152Z,5.55
2018-05-27T18:57:48.612Z,5.18
2018-05-27T19:00:16.071Z,5.18
2018-05-27T19:02:45.713Z,5.35
2018-05-27T19:05:13.397Z,5.30
2018-05-27T19:07:40.902Z,5.73
2018-05-27T19:10:08.425Z,5.73
2018-05-27T19:12:36.887Z,5.70
2018-05-27T19:15:04.337Z,5.87
2018-05-27T19:17:31.900Z,5.93
2018-05-27T19:19:59.411Z,6.10
2018-05-27T19:22:27.114Z,5.57
2018-05-27T19:24:54.969Z,6.03
2018-05-27T19:27:22.554Z,6.13
2018-05-27T19:29:50.118Z,6.30
2018-05-27T19:32:17.734Z,11.00
2018-05-27T19:34:45.705Z,7.00
2018-05-27T19:37:13.744Z,6.73
2018-05-27T19:39:41.262Z,6.23
2018-05-27T19:42:08.790Z,5.90
2018-05-27T19:44:36.237Z,6.30
2018-05-27T19:47:04.051Z,6.07
2018-05-27T19:49:31.569Z,5.77
2018-05-27T19:51:59.033Z,6.10
2018-05-27T19:54:26.499Z,7.00
2018-05-27T19:56:54.004Z,6.57
2018-05-27T19:59:21.840Z,6.00
2018-05-27T20:01:49.325Z,6.37
2018-05-27T20:04:16.757Z,6.70
2018-05-27T20:06:44.198Z,6.70
2018-05-27T20:09:11.633Z,6.40
2018-05-27T20:11:39.075Z,6.80
2018-05-27T20:14:06.631Z,6.73
2018-05-27T20:16:34.094Z,6.80
2018-05-27T20:19:01.598Z,7.50
2018-05-27T20:21:29.114Z,6.80
2018-05-27T20:23:56.548Z,7.17
2018-05-27T20:26:24.042Z,7.37
2018-05-27T20:28:51.478Z,7.73
2018-05-27T20:31:18.902Z,7.80
2018-05-27T20:33:46.331Z,7.37
2018-05-27T20:36:13.778Z,7.70
2018-05-27T20:38:41.208Z,7.43
2018-05-27T20:41:08.684Z,8.17
2018-05-27T20:43:36.158Z,7.60
2018-05-27T20:46:03.611Z,8.10
2018-05-27T20:48:31.073Z,8.10
2018-05-27T20:50:58.707Z,8.07
2018-05-27T20:53:26.189Z,8.10
2018-05-27T20:55:53.745Z,8.43
2018-05-27T20:58:21.165Z,8.43
2018-05-27T21:00:49.372Z,7.60
2018-05-27T21:03:16.825Z,8.23
2018-05-27T21:05:44.279Z,7.90
2018-05-27T21:08:11.703Z,8.70
2018-05-27T21:10:39.210Z,9.17
2018-05-27T21:13:06.678Z,9.37
2018-05-27T21:15:34.119Z,8.20
2018-05-27T21:18:01.588Z,9.00
2018-05-27T21:20:29.033Z,8.73
2018-05-27T21:22:56.561Z,7.27
2018-05-27T21:25:24.047Z,8.30
2018-05-27T21:27:51.520Z,7.60
2018-05-27T21:30:18.997Z,8.00
2018-05-27T21:32:46.727Z,8.37
2018-05-27T21:35:14.181Z,8.17
2018-05-27T21:37:41.630Z,8.17
2018-05-27T21:40:10.238Z,8.33
2018-05-27T21:42:37.799Z,7.97
2018-05-27T21:45:05.722Z,8.30
2018-05-27T21:47:33.233Z,9.00
2018-05-27T21:50:00.711Z,8.93
2018-05-27T21:52:28.137Z,8.90
2018-05-27T21:54:55.742Z,9.77
2018-05-27T21:57:23.552Z,9.63
2018-05-27T21:59:50.980Z,9.43
2018-05-27T22:02:18.449Z,9.70
2018-05-27T22:04:45.924Z,9.77
2018-05-27T22:07:13.356Z,9.10
2018-05-27T22:09:41.652Z,9.40
2018-05-27T22:12:09.088Z,8.93
2018-05-27T22:14:36.681Z,9.77
2018-05-27T22:17:04.136Z,8.93
2018-05-27T22:19:31.798Z,9.23
2018-05-27T22:21:59.246Z,9.43
2018-05-27T22:24:26.725Z,10.20
2018-05-27T22:26:54.175Z,9.47
2018-05-27T22:29:21.799Z,9.23
2018-05-27T22:31:49.436Z,8.00
2018-05-27T22:34:16.879Z,8.80
2018-05-27T22:36:44.309Z,10.80
2018-05-27T22:39:11.849Z,11.03
2018-05-27T22:41:39.299Z,11.03
2018-05-27T22:44:06.769Z,11.07
2018-05-27T22:46:34.221Z,9.97
2018-05-27T22:49:01.680Z,10.57
2018-05-27T22:51:29.133Z,10.23
2018-05-27T22:53:56.569Z,9.93
2018-05-27T22:56:24.012Z,9.63
2018-05-27T22:58:52.012Z,9.50
2018-05-27T23:01:19.509Z,9.00
2018-05-27T23:03:46.954Z,9.73
2018-05-27T23:06:14.429Z,9.10
2018-05-27T23:08:41.875Z,8.97
2018-05-27T23:11:09.352Z,8.60
2018-05-27T23:13:36.799Z,8.80
2018-05-27T23:16:04.296Z,8.87
2018-05-27T23:18:31.777Z,9.67
2018-05-27T23:20:59.318Z,8.50
2018-05-27T23:23:26.777Z,9.03
2018-05-27T23:25:54.278Z,9.20
2018-05-27T23:28:21.840Z,9.37
2018-05-27T23:30:49.405Z,10.10
2018-05-27T23:33:17.742Z,9.43
2018-05-27T23:35:45.478Z,8.90
2018-05-27T23:38:12.985Z,9.37
2018-05-27T23:40:40.424Z,9.20
2018-05-27T23:43:07.874Z,8.90
2018-05-27T23:45:35.323Z,10.23
2018-05-27T23:48:02.826Z,8.87
2018-05-27T23:50:30.293Z,8.73
2018-05-27T23:52:57.782Z,9.60
2018-05-27T23:55:25.237Z,10.67
2018-05-27T23:57:52.742Z,9.93
